sensor_id;sensor_type;location;lat;lon;timestamp;P1;durP1;ratioP1;P2;durP2;ratioP2
74328;SDS011;62745;51.060;13.786;2023-04-15T00:01:46;9.40;;;4.72;;
74328;SDS011;62745;51.060;13.786;2023-04-15T00:04:11;10.45;;;5.25;;
74328;SDS011;62745;51.060;13.786;2023-04-15T00:06:37;9.85;;;5.55;;
74328;SDS011;62745;51.060;13.786;2023-04-15T00:09:03;9.30;;;4.38;;
74328;SDS011;62745;51.060;13.786;2023-04-15T00:11:29;10.63;;;5.15;;
74328;SDS011;62745;51.060;13.786;2023-04-15T00:13:54;8.53;;;4.40;;
74328;SDS011;62745;51.060;13.786;2023-04-15T00:16:19;8.37;;;4.77;;
74328;SDS011;62745;51.060;13.786;2023-04-15T00:18:45;9.07;;;4.63;;
74328;SDS011;62745;51.060;13.786;2023-04-15T00:21:10;9.40;;;5.18;;
74328;SDS011;62745;51.060;13.786;2023-04-15T00:23:36;9.30;;;4.10;;
74328;SDS011;62745;51.060;13.786;2023-04-15T00:26:01;8.27;;;4.60;;
74328;SDS011;62745;51.060;13.786;2023-04-15T00:28:26;9.33;;;4.80;;
74328;SDS011;62745;51.060;13.786;2023-04-15T00:30:52;8.50;;;4.70;;
74328;SDS011;62745;51.060;13.786;2023-04-15T00:33:17;8.30;;;4.20;;
74328;SDS011;62745;51.060;13.786;2023-04-15T00:35:42;8.63;;;4.10;;
74328;SDS011;62745;51.060;13.786;2023-04-15T00:38:07;7.53;;;4.10;;
74328;SDS011;62745;51.060;13.786;2023-04-15T00:40:33;8.20;;;3.63;;
74328;SDS011;62745;51.060;13.786;2023-04-15T00:42:59;8.15;;;4.13;;
74328;SDS011;62745;51.060;13.786;2023-04-15T00:45:24;8.13;;;4.22;;
74328;SDS011;62745;51.060;13.786;2023-04-15T00:47:52;8.10;;;4.43;;
74328;SDS011;62745;51.060;13.786;2023-04-15T00:50:17;8.57;;;3.90;;
74328;SDS011;62745;51.060;13.786;2023-04-15T00:52:42;7.97;;;4.10;;
74328;SDS011;62745;51.060;13.786;2023-04-15T00:55:08;7.50;;;3.93;;
74328;SDS011;62745;51.060;13.786;2023-04-15T00:57:34;8.52;;;4.38;;
74328;SDS011;62745;51.060;13.786;2023-04-15T01:00:00;8.90;;;3.90;;
74328;SDS011;62745;51.060;13.786;2023-04-15T01:02:26;8.18;;;3.50;;
74328;SDS011;62745;51.060;13.786;2023-04-15T01:04:51;7.45;;;3.63;;
74328;SDS011;62745;51.060;13.786;2023-04-15T01:07:17;7.28;;;3.88;;
74328;SDS011;62745;51.060;13.786;2023-04-15T01:09:42;6.68;;;3.25;;
74328;SDS011;62745;51.060;13.786;2023-04-15T01:12:10;8.07;;;3.85;;
74328;SDS011;62745;51.060;13.786;2023-04-15T01:14:36;7.88;;;3.60;;
74328;SDS011;62745;51.060;13.786;2023-04-15T01:17:02;7.80;;;4.07;;
74328;SDS011;62745;51.060;13.786;2023-04-15T01:19:27;8.77;;;3.92;;
74328;SDS011;62745;51.060;13.786;2023-04-15T01:21:52;7.82;;;4.00;;
74328;SDS011;62745;51.060;13.786;2023-04-15T01:24:18;7.72;;;3.70;;
74328;SDS011;62745;51.060;13.786;2023-04-15T01:26:45;8.85;;;4.20;;
74328;SDS011;62745;51.060;13.786;2023-04-15T01:29:10;7.90;;;4.03;;
74328;SDS011;62745;51.060;13.786;2023-04-15T01:31:36;8.50;;;3.97;;
74328;SDS011;62745;51.060;13.786;2023-04-15T01:34:01;7.60;;;3.73;;
74328;SDS011;62745;51.060;13.786;2023-04-15T01:36:26;8.10;;;4.07;;
74328;SDS011;62745;51.060;13.786;2023-04-15T01:38:52;8.63;;;4.07;;
74328;SDS011;62745;51.060;13.786;2023-04-15T01:41:25;7.55;;;4.13;;
74328;SDS011;62745;51.060;13.786;2023-04-15T01:43:52;8.98;;;4.20;;
74328;SDS011;62745;51.060;13.786;2023-04-15T01:46:17;9.82;;;4.40;;
74328;SDS011;62745;51.060;13.786;2023-04-15T01:48:43;7.95;;;4.07;;
74328;SDS011;62745;51.060;13.786;2023-04-15T01:51:08;9.40;;;4.47;;
74328;SDS011;62745;51.060;13.786;2023-04-15T01:53:33;8.02;;;4.10;;
74328;SDS011;62745;51.060;13.786;2023-04-15T01:55:59;8.13;;;3.88;;
74328;SDS011;62745;51.060;13.786;2023-04-15T01:58:25;8.40;;;4.57;;
74328;SDS011;62745;51.060;13.786;2023-04-15T02:00:51;7.60;;;4.00;;
74328;SDS011;62745;51.060;13.786;2023-04-15T02:03:16;9.52;;;4.50;;
74328;SDS011;62745;51.060;13.786;2023-04-15T02:05:41;9.05;;;4.03;;
74328;SDS011;62745;51.060;13.786;2023-04-15T02:08:08;8.77;;;4.38;;
74328;SDS011;62745;51.060;13.786;2023-04-15T02:10:33;8.30;;;4.60;;
74328;SDS011;62745;51.060;13.786;2023-04-15T02:12:59;8.32;;;4.40;;
74328;SDS011;62745;51.060;13.786;2023-04-15T02:15:24;8.73;;;4.13;;
74328;SDS011;62745;51.060;13.786;2023-04-15T02:17:50;8.50;;;4.28;;
74328;SDS011;62745;51.060;13.786;2023-04-15T02:20:19;7.85;;;4.15;;
74328;SDS011;62745;51.060;13.786;2023-04-15T02:22:45;8.15;;;3.90;;
74328;SDS011;62745;51.060;13.786;2023-04-15T02:25:11;9.30;;;4.43;;
74328;SDS011;62745;51.060;13.786;2023-04-15T02:27:36;9.27;;;4.90;;
74328;SDS011;62745;51.060;13.786;2023-04-15T02:30:01;9.17;;;4.80;;
74328;SDS011;62745;51.060;13.786;2023-04-15T02:32:27;8.52;;;4.22;;
74328;SDS011;62745;51.060;13.786;2023-04-15T02:34:53;9.77;;;4.55;;
74328;SDS011;62745;51.060;13.786;2023-04-15T02:37:18;8.27;;;4.50;;
74328;SDS011;62745;51.060;13.786;2023-04-15T02:39:44;8.70;;;4.53;;
74328;SDS011;62745;51.060;13.786;2023-04-15T02:42:09;8.65;;;4.80;;
74328;SDS011;62745;51.060;13.786;2023-04-15T02:44:35;7.43;;;4.00;;
74328;SDS011;62745;51.060;13.786;2023-04-15T02:47:00;8.67;;;4.80;;
74328;SDS011;62745;51.060;13.786;2023-04-15T02:49:25;8.40;;;4.53;;
74328;SDS011;62745;51.060;13.786;2023-04-15T02:51:53;8.60;;;4.40;;
74328;SDS011;62745;51.060;13.786;2023-04-15T02:54:19;8.45;;;4.47;;
74328;SDS011;62745;51.060;13.786;2023-04-15T02:56:46;8.15;;;4.10;;
74328;SDS011;62745;51.060;13.786;2023-04-15T02:59:12;9.18;;;4.18;;
74328;SDS011;62745;51.060;13.786;2023-04-15T03:01:37;8.00;;;4.10;;
74328;SDS011;62745;51.060;13.786;2023-04-15T03:04:02;8.93;;;4.20;;
74328;SDS011;62745;51.060;13.786;2023-04-15T03:06:28;8.40;;;4.40;;
74328;SDS011;62745;51.060;13.786;2023-04-15T03:08:53;5.80;;;3.10;;
74328;SDS011;62745;51.060;13.786;2023-04-15T03:11:18;9.30;;;4.30;;
74328;SDS011;62745;51.060;13.786;2023-04-15T03:13:44;8.55;;;4.10;;
74328;SDS011;62745;51.060;13.786;2023-04-15T03:16:09;8.30;;;4.17;;
74328;SDS011;62745;51.060;13.786;2023-04-15T03:18:35;9.48;;;4.82;;
74328;SDS011;62745;51.060;13.786;2023-04-15T03:21:00;8.05;;;4.10;;
74328;SDS011;62745;51.060;13.786;2023-04-15T03:23:26;9.45;;;4.60;;
74328;SDS011;62745;51.060;13.786;2023-04-15T03:25:51;8.00;;;3.72;;
74328;SDS011;62745;51.060;13.786;2023-04-15T03:28:19;8.05;;;4.35;;
74328;SDS011;62745;51.060;13.786;2023-04-15T03:30:45;8.77;;;4.25;;
74328;SDS011;62745;51.060;13.786;2023-04-15T03:33:10;9.00;;;4.55;;
74328;SDS011;62745;51.060;13.786;2023-04-15T03:35:35;9.27;;;4.38;;
74328;SDS011;62745;51.060;13.786;2023-04-15T03:38:01;9.80;;;4.80;;
74328;SDS011;62745;51.060;13.786;2023-04-15T03:40:27;8.93;;;4.40;;
74328;SDS011;62745;51.060;13.786;2023-04-15T03:42:52;9.40;;;5.78;;
74328;SDS011;62745;51.060;13.786;2023-04-15T03:45:17;9.80;;;5.13;;
74328;SDS011;62745;51.060;13.786;2023-04-15T03:47:43;9.47;;;4.30;;
74328;SDS011;62745;51.060;13.786;2023-04-15T03:50:08;9.77;;;5.27;;
74328;SDS011;62745;51.060;13.786;2023-04-15T03:52:33;9.05;;;4.28;;
74328;SDS011;62745;51.060;13.786;2023-04-15T03:54:59;9.98;;;4.88;;
74328;SDS011;62745;51.060;13.786;2023-04-15T03:57:24;10.27;;;5.03;;
74328;SDS011;62745;51.060;13.786;2023-04-15T03:59:50;10.57;;;5.28;;
74328;SDS011;62745;51.060;13.786;2023-04-15T04:02:15;10.23;;;5.67;;
74328;SDS011;62745;51.060;13.786;2023-04-15T04:04:41;10.07;;;5.03;;
74328;SDS011;62745;51.060;13.786;2023-04-15T04:07:07;8.70;;;4.70;;
74328;SDS011;62745;51.060;13.786;2023-04-15T04:09:32;10.17;;;5.13;;
74328;SDS011;62745;51.060;13.786;2023-04-15T04:11:58;11.70;;;5.53;;
74328;SDS011;62745;51.060;13.786;2023-04-15T04:14:23;8.87;;;4.57;;
74328;SDS011;62745;51.060;13.786;2023-04-15T04:16:53;10.60;;;4.43;;
74328;SDS011;62745;51.060;13.786;2023-04-15T04:19:18;10.00;;;4.70;;
74328;SDS011;62745;51.060;13.786;2023-04-15T04:21:44;11.27;;;5.30;;
74328;SDS011;62745;51.060;13.786;2023-04-15T04:24:09;10.65;;;6.18;;
74328;SDS011;62745;51.060;13.786;2023-04-15T04:26:35;10.27;;;4.97;;
74328;SDS011;62745;51.060;13.786;2023-04-15T04:29:01;11.68;;;5.07;;
74328;SDS011;62745;51.060;13.786;2023-04-15T04:31:26;12.47;;;5.97;;
74328;SDS011;62745;51.060;13.786;2023-04-15T04:33:51;12.68;;;5.45;;
74328;SDS011;62745;51.060;13.786;2023-04-15T04:36:17;11.33;;;5.07;;
74328;SDS011;62745;51.060;13.786;2023-04-15T04:38:42;11.77;;;5.93;;
74328;SDS011;62745;51.060;13.786;2023-04-15T04:41:07;11.15;;;5.70;;
74328;SDS011;62745;51.060;13.786;2023-04-15T04:43:33;10.47;;;5.50;;
74328;SDS011;62745;51.060;13.786;2023-04-15T04:45:58;9.60;;;4.77;;
74328;SDS011;62745;51.060;13.786;2023-04-15T04:48:23;9.70;;;5.07;;
74328;SDS011;62745;51.060;13.786;2023-04-15T04:50:48;9.47;;;5.17;;
74328;SDS011;62745;51.060;13.786;2023-04-15T04:53:14;10.77;;;5.30;;
74328;SDS011;62745;51.060;13.786;2023-04-15T04:55:39;12.93;;;4.97;;
74328;SDS011;62745;51.060;13.786;2023-04-15T04:58:04;9.37;;;5.27;;
74328;SDS011;62745;51.060;13.786;2023-04-15T05:00:29;9.00;;;4.40;;
74328;SDS011;62745;51.060;13.786;2023-04-15T05:02:55;8.47;;;4.70;;
74328;SDS011;62745;51.060;13.786;2023-04-15T05:05:20;8.60;;;4.68;;
74328;SDS011;62745;51.060;13.786;2023-04-15T05:07:45;8.63;;;4.07;;
74328;SDS011;62745;51.060;13.786;2023-04-15T05:10:13;9.85;;;5.05;;
74328;SDS011;62745;51.060;13.786;2023-04-15T05:12:39;8.23;;;4.53;;
74328;SDS011;62745;51.060;13.786;2023-04-15T05:15:04;9.02;;;4.60;;
74328;SDS011;62745;51.060;13.786;2023-04-15T05:17:30;9.25;;;4.63;;
74328;SDS011;62745;51.060;13.786;2023-04-15T05:19:57;9.23;;;4.30;;
74328;SDS011;62745;51.060;13.786;2023-04-15T05:22:22;8.53;;;4.43;;
74328;SDS011;62745;51.060;13.786;2023-04-15T05:24:47;8.27;;;4.40;;
74328;SDS011;62745;51.060;13.786;2023-04-15T05:27:13;10.23;;;4.75;;
74328;SDS011;62745;51.060;13.786;2023-04-15T05:29:38;10.20;;;5.20;;
74328;SDS011;62745;51.060;13.786;2023-04-15T05:32:03;7.27;;;4.40;;
74328;SDS011;62745;51.060;13.786;2023-04-15T05:34:29;9.00;;;4.45;;
74328;SDS011;62745;51.060;13.786;2023-04-15T05:36:54;8.03;;;4.40;;
74328;SDS011;62745;51.060;13.786;2023-04-15T05:39:19;9.37;;;5.07;;
74328;SDS011;62745;51.060;13.786;2023-04-15T05:41:45;8.13;;;4.28;;
74328;SDS011;62745;51.060;13.786;2023-04-15T05:44:10;8.52;;;4.68;;
74328;SDS011;62745;51.060;13.786;2023-04-15T05:46:35;9.37;;;4.70;;
74328;SDS011;62745;51.060;13.786;2023-04-15T05:49:01;8.33;;;3.87;;
74328;SDS011;62745;51.060;13.786;2023-04-15T05:51:26;6.73;;;3.83;;
74328;SDS011;62745;51.060;13.786;2023-04-15T05:53:51;8.27;;;4.22;;
74328;SDS011;62745;51.060;13.786;2023-04-15T05:56:17;7.50;;;3.92;;
74328;SDS011;62745;51.060;13.786;2023-04-15T05:58:44;7.75;;;3.65;;
74328;SDS011;62745;51.060;13.786;2023-04-15T06:01:09;6.57;;;3.15;;
74328;SDS011;62745;51.060;13.786;2023-04-15T06:03:34;7.47;;;2.80;;
74328;SDS011;62745;51.060;13.786;2023-04-15T06:06:00;4.25;;;2.25;;
74328;SDS011;62745;51.060;13.786;2023-04-15T06:08:26;5.00;;;2.30;;
74328;SDS011;62745;51.060;13.786;2023-04-15T06:10:51;7.95;;;2.55;;
74328;SDS011;62745;51.060;13.786;2023-04-15T06:13:17;4.47;;;2.03;;
74328;SDS011;62745;51.060;13.786;2023-04-15T06:15:42;5.07;;;1.97;;
74328;SDS011;62745;51.060;13.786;2023-04-15T06:18:07;4.53;;;2.10;;
74328;SDS011;62745;51.060;13.786;2023-04-15T06:20:33;4.73;;;2.47;;
74328;SDS011;62745;51.060;13.786;2023-04-15T06:22:58;4.13;;;2.00;;
74328;SDS011;62745;51.060;13.786;2023-04-15T06:25:23;4.73;;;1.90;;
74328;SDS011;62745;51.060;13.786;2023-04-15T06:27:48;4.40;;;2.07;;
74328;SDS011;62745;51.060;13.786;2023-04-15T06:30:13;5.13;;;1.80;;
74328;SDS011;62745;51.060;13.786;2023-04-15T06:32:39;5.27;;;1.87;;
74328;SDS011;62745;51.060;13.786;2023-04-15T06:35:04;3.45;;;1.70;;
74328;SDS011;62745;51.060;13.786;2023-04-15T06:37:29;4.95;;;1.65;;
74328;SDS011;62745;51.060;13.786;2023-04-15T06:39:55;3.75;;;1.67;;
74328;SDS011;62745;51.060;13.786;2023-04-15T06:42:20;3.93;;;1.63;;
74328;SDS011;62745;51.060;13.786;2023-04-15T06:44:46;3.47;;;1.50;;
74328;SDS011;62745;51.060;13.786;2023-04-15T06:47:11;3.80;;;1.73;;
74328;SDS011;62745;51.060;13.786;2023-04-15T06:49:38;4.28;;;1.65;;
74328;SDS011;62745;51.060;13.786;2023-04-15T06:52:04;3.15;;;1.58;;
74328;SDS011;62745;51.060;13.786;2023-04-15T06:54:29;3.73;;;1.47;;
74328;SDS011;62745;51.060;13.786;2023-04-15T06:56:54;2.60;;;1.10;;
74328;SDS011;62745;51.060;13.786;2023-04-15T06:59:20;3.03;;;1.23;;
74328;SDS011;62745;51.060;13.786;2023-04-15T07:01:45;2.40;;;1.17;;
74328;SDS011;62745;51.060;13.786;2023-04-15T07:04:11;3.08;;;1.30;;
74328;SDS011;62745;51.060;13.786;2023-04-15T07:06:36;2.38;;;1.20;;
74328;SDS011;62745;51.060;13.786;2023-04-15T07:09:02;2.50;;;0.90;;
74328;SDS011;62745;51.060;13.786;2023-04-15T07:11:28;2.90;;;1.20;;
74328;SDS011;62745;51.060;13.786;2023-04-15T07:13:54;2.10;;;1.08;;
74328;SDS011;62745;51.060;13.786;2023-04-15T07:16:20;3.70;;;1.00;;
74328;SDS011;62745;51.060;13.786;2023-04-15T07:18:45;2.05;;;0.98;;
74328;SDS011;62745;51.060;13.786;2023-04-15T07:21:11;2.67;;;1.30;;
74328;SDS011;62745;51.060;13.786;2023-04-15T07:23:36;2.58;;;1.20;;
74328;SDS011;62745;51.060;13.786;2023-04-15T07:26:02;2.70;;;1.00;;
74328;SDS011;62745;51.060;13.786;2023-04-15T07:28:27;3.00;;;1.10;;
74328;SDS011;62745;51.060;13.786;2023-04-15T07:30:52;2.70;;;1.20;;
74328;SDS011;62745;51.060;13.786;2023-04-15T07:33:18;2.80;;;1.20;;
74328;SDS011;62745;51.060;13.786;2023-04-15T07:35:43;2.70;;;1.10;;
74328;SDS011;62745;51.060;13.786;2023-04-15T07:38:09;3.58;;;1.25;;
74328;SDS011;62745;51.060;13.786;2023-04-15T07:40:36;2.17;;;1.00;;
74328;SDS011;62745;51.060;13.786;2023-04-15T07:43:01;3.60;;;1.17;;
74328;SDS011;62745;51.060;13.786;2023-04-15T07:45:27;2.35;;;1.20;;
74328;SDS011;62745;51.060;13.786;2023-04-15T07:47:52;2.15;;;1.10;;
74328;SDS011;62745;51.060;13.786;2023-04-15T07:50:18;2.57;;;1.00;;
74328;SDS011;62745;51.060;13.786;2023-04-15T07:52:43;2.75;;;0.93;;
74328;SDS011;62745;51.060;13.786;2023-04-15T07:55:09;2.88;;;0.98;;
74328;SDS011;62745;51.060;13.786;2023-04-15T07:57:36;3.03;;;0.90;;
74328;SDS011;62745;51.060;13.786;2023-04-15T08:00:02;3.45;;;0.90;;
74328;SDS011;62745;51.060;13.786;2023-04-15T08:02:31;2.50;;;0.90;;
74328;SDS011;62745;51.060;13.786;2023-04-15T08:04:56;1.13;;;0.63;;
74328;SDS011;62745;51.060;13.786;2023-04-15T08:07:22;1.40;;;0.80;;
74328;SDS011;62745;51.060;13.786;2023-04-15T08:09:47;1.67;;;0.68;;
74328;SDS011;62745;51.060;13.786;2023-04-15T08:12:12;1.98;;;0.80;;
74328;SDS011;62745;51.060;13.786;2023-04-15T08:14:38;1.70;;;0.90;;
74328;SDS011;62745;51.060;13.786;2023-04-15T08:17:04;2.60;;;0.82;;
74328;SDS011;62745;51.060;13.786;2023-04-15T08:19:31;2.40;;;0.90;;
74328;SDS011;62745;51.060;13.786;2023-04-15T08:21:56;1.20;;;0.73;;
74328;SDS011;62745;51.060;13.786;2023-04-15T08:24:23;1.85;;;0.80;;
74328;SDS011;62745;51.060;13.786;2023-04-15T08:26:54;2.15;;;0.80;;
74328;SDS011;62745;51.060;13.786;2023-04-15T08:29:20;2.47;;;0.93;;
74328;SDS011;62745;51.060;13.786;2023-04-15T08:31:46;2.35;;;0.98;;
74328;SDS011;62745;51.060;13.786;2023-04-15T08:34:11;3.15;;;1.13;;
74328;SDS011;62745;51.060;13.786;2023-04-15T08:36:37;2.80;;;1.10;;
74328;SDS011;62745;51.060;13.786;2023-04-15T08:39:02;2.78;;;1.00;;
74328;SDS011;62745;51.060;13.786;2023-04-15T08:41:29;2.47;;;1.15;;
74328;SDS011;62745;51.060;13.786;2023-04-15T08:44:04;2.22;;;1.02;;
74328;SDS011;62745;51.060;13.786;2023-04-15T08:46:30;3.45;;;1.23;;
74328;SDS011;62745;51.060;13.786;2023-04-15T08:48:57;2.38;;;1.10;;
74328;SDS011;62745;51.060;13.786;2023-04-15T08:51:23;2.88;;;1.08;;
74328;SDS011;62745;51.060;13.786;2023-04-15T08:53:49;4.10;;;1.95;;
74328;SDS011;62745;51.060;13.786;2023-04-15T08:56:15;4.10;;;2.20;;
74328;SDS011;62745;51.060;13.786;2023-04-15T08:58:40;5.47;;;2.55;;
74328;SDS011;62745;51.060;13.786;2023-04-15T09:01:07;3.90;;;2.20;;
74328;SDS011;62745;51.060;13.786;2023-04-15T09:03:33;4.65;;;2.38;;
74328;SDS011;62745;51.060;13.786;2023-04-15T09:05:59;5.47;;;2.70;;
74328;SDS011;62745;51.060;13.786;2023-04-15T09:08:24;4.13;;;2.40;;
74328;SDS011;62745;51.060;13.786;2023-04-15T09:10:49;4.30;;;2.63;;
74328;SDS011;62745;51.060;13.786;2023-04-15T09:13:15;4.93;;;2.70;;
74328;SDS011;62745;51.060;13.786;2023-04-15T09:15:40;5.25;;;2.53;;
74328;SDS011;62745;51.060;13.786;2023-04-15T09:18:06;4.77;;;2.60;;
74328;SDS011;62745;51.060;13.786;2023-04-15T09:20:37;5.07;;;2.80;;
74328;SDS011;62745;51.060;13.786;2023-04-15T09:23:12;5.38;;;2.72;;
74328;SDS011;62745;51.060;13.786;2023-04-15T09:25:39;5.15;;;2.67;;
74328;SDS011;62745;51.060;13.786;2023-04-15T09:28:08;4.32;;;2.30;;
74328;SDS011;62745;51.060;13.786;2023-04-15T09:30:34;4.65;;;2.05;;
74328;SDS011;62745;51.060;13.786;2023-04-15T09:33:00;3.67;;;2.10;;
74328;SDS011;62745;51.060;13.786;2023-04-15T09:35:26;5.72;;;2.38;;
74328;SDS011;62745;51.060;13.786;2023-04-15T09:37:53;4.05;;;2.33;;
74328;SDS011;62745;51.060;13.786;2023-04-15T09:40:38;3.92;;;2.05;;
74328;SDS011;62745;51.060;13.786;2023-04-15T09:43:05;4.40;;;2.42;;
74328;SDS011;62745;51.060;13.786;2023-04-15T09:45:33;4.30;;;2.40;;
74328;SDS011;62745;51.060;13.786;2023-04-15T09:48:13;4.25;;;2.47;;
74328;SDS011;62745;51.060;13.786;2023-04-15T09:50:41;4.45;;;2.10;;
74328;SDS011;62745;51.060;13.786;2023-04-15T09:53:14;6.90;;;2.63;;
74328;SDS011;62745;51.060;13.786;2023-04-15T09:55:44;4.90;;;2.10;;
74328;SDS011;62745;51.060;13.786;2023-04-15T09:58:24;5.90;;;2.47;;
74328;SDS011;62745;51.060;13.786;2023-04-15T10:00:51;4.60;;;2.80;;
74328;SDS011;62745;51.060;13.786;2023-04-15T10:03:27;3.80;;;2.35;;
74328;SDS011;62745;51.060;13.786;2023-04-15T10:05:56;4.57;;;2.00;;
74328;SDS011;62745;51.060;13.786;2023-04-15T10:08:23;4.38;;;2.10;;
74328;SDS011;62745;51.060;13.786;2023-04-15T10:10:51;4.07;;;2.47;;
74328;SDS011;62745;51.060;13.786;2023-04-15T10:13:23;3.90;;;2.20;;
74328;SDS011;62745;51.060;13.786;2023-04-15T10:16:05;4.00;;;2.15;;
74328;SDS011;62745;51.060;13.786;2023-04-15T10:18:35;4.28;;;2.30;;
74328;SDS011;62745;51.060;13.786;2023-04-15T10:21:04;4.57;;;2.47;;
74328;SDS011;62745;51.060;13.786;2023-04-15T10:23:31;5.25;;;2.35;;
74328;SDS011;62745;51.060;13.786;2023-04-15T10:25:56;5.35;;;2.33;;
74328;SDS011;62745;51.060;13.786;2023-04-15T10:28:23;4.75;;;2.47;;
74328;SDS011;62745;51.060;13.786;2023-04-15T10:30:49;4.65;;;3.38;;
74328;SDS011;62745;51.060;13.786;2023-04-15T10:33:16;4.45;;;2.58;;
74328;SDS011;62745;51.060;13.786;2023-04-15T10:35:44;5.15;;;2.90;;
74328;SDS011;62745;51.060;13.786;2023-04-15T10:38:31;4.82;;;2.67;;
74328;SDS011;62745;51.060;13.786;2023-04-15T10:41:18;5.00;;;2.92;;
74328;SDS011;62745;51.060;13.786;2023-04-15T10:43:53;4.75;;;3.13;;
74328;SDS011;62745;51.060;13.786;2023-04-15T10:49:10;4.45;;;2.83;;
74328;SDS011;62745;51.060;13.786;2023-04-15T10:51:44;4.80;;;2.83;;
74328;SDS011;62745;51.060;13.786;2023-04-15T10:56:51;5.88;;;3.00;;
74328;SDS011;62745;51.060;13.786;2023-04-15T10:59:32;5.32;;;2.33;;
74328;SDS011;62745;51.060;13.786;2023-04-15T11:02:01;4.15;;;2.40;;
74328;SDS011;62745;51.060;13.786;2023-04-15T11:04:49;4.55;;;2.28;;
74328;SDS011;62745;51.060;13.786;2023-04-15T11:09:57;3.10;;;1.52;;
74328;SDS011;62745;51.060;13.786;2023-04-15T11:12:22;3.97;;;1.55;;
74328;SDS011;62745;51.060;13.786;2023-04-15T11:14:59;3.75;;;1.75;;
74328;SDS011;62745;51.060;13.786;2023-04-15T11:17:27;3.78;;;2.08;;
74328;SDS011;62745;51.060;13.786;2023-04-15T11:19:55;3.55;;;1.73;;
74328;SDS011;62745;51.060;13.786;2023-04-15T11:22:20;3.78;;;1.77;;
74328;SDS011;62745;51.060;13.786;2023-04-15T11:24:46;3.45;;;1.80;;
74328;SDS011;62745;51.060;13.786;2023-04-15T11:27:21;3.75;;;1.70;;
74328;SDS011;62745;51.060;13.786;2023-04-15T11:29:47;3.47;;;1.65;;
74328;SDS011;62745;51.060;13.786;2023-04-15T11:32:12;3.30;;;1.90;;
74328;SDS011;62745;51.060;13.786;2023-04-15T11:34:37;3.70;;;1.77;;
74328;SDS011;62745;51.060;13.786;2023-04-15T11:37:03;3.43;;;1.60;;
74328;SDS011;62745;51.060;13.786;2023-04-15T11:39:30;3.42;;;1.40;;
74328;SDS011;62745;51.060;13.786;2023-04-15T11:41:56;3.67;;;1.60;;
74328;SDS011;62745;51.060;13.786;2023-04-15T11:44:21;3.73;;;1.83;;
74328;SDS011;62745;51.060;13.786;2023-04-15T11:46:46;3.13;;;1.67;;
74328;SDS011;62745;51.060;13.786;2023-04-15T11:49:24;3.90;;;1.67;;
74328;SDS011;62745;51.060;13.786;2023-04-15T11:51:50;3.40;;;1.67;;
74328;SDS011;62745;51.060;13.786;2023-04-15T11:54:17;3.65;;;1.83;;
74328;SDS011;62745;51.060;13.786;2023-04-15T11:56:43;2.63;;;1.23;;
74328;SDS011;62745;51.060;13.786;2023-04-15T11:59:14;2.95;;;1.30;;
74328;SDS011;62745;51.060;13.786;2023-04-15T12:01:39;2.93;;;1.23;;
74328;SDS011;62745;51.060;13.786;2023-04-15T12:04:09;4.03;;;1.60;;
74328;SDS011;62745;51.060;13.786;2023-04-15T12:06:39;2.92;;;1.30;;
74328;SDS011;62745;51.060;13.786;2023-04-15T12:16:39;2.60;;;1.20;;
74328;SDS011;62745;51.060;13.786;2023-04-15T12:19:11;3.60;;;1.55;;
74328;SDS011;62745;51.060;13.786;2023-04-15T12:21:41;3.47;;;1.60;;
74328;SDS011;62745;51.060;13.786;2023-04-15T12:24:09;4.20;;;1.50;;
74328;SDS011;62745;51.060;13.786;2023-04-15T12:26:37;2.90;;;1.17;;
74328;SDS011;62745;51.060;13.786;2023-04-15T12:29:09;4.53;;;1.13;;
74328;SDS011;62745;51.060;13.786;2023-04-15T12:31:35;5.32;;;1.30;;
74328;SDS011;62745;51.060;13.786;2023-04-15T12:34:01;3.45;;;1.17;;
74328;SDS011;62745;51.060;13.786;2023-04-15T12:36:28;2.40;;;1.10;;
74328;SDS011;62745;51.060;13.786;2023-04-15T12:39:00;2.38;;;1.25;;
74328;SDS011;62745;51.060;13.786;2023-04-15T12:41:25;2.78;;;1.20;;
74328;SDS011;62745;51.060;13.786;2023-04-15T12:43:55;2.70;;;1.37;;
74328;SDS011;62745;51.060;13.786;2023-04-15T12:46:20;3.10;;;1.23;;
74328;SDS011;62745;51.060;13.786;2023-04-15T12:48:46;2.10;;;1.00;;
74328;SDS011;62745;51.060;13.786;2023-04-15T12:51:11;2.60;;;1.15;;
74328;SDS011;62745;51.060;13.786;2023-04-15T12:53:37;2.85;;;1.50;;
74328;SDS011;62745;51.060;13.786;2023-04-15T12:56:02;2.67;;;1.37;;
74328;SDS011;62745;51.060;13.786;2023-04-15T12:58:27;3.40;;;1.20;;
74328;SDS011;62745;51.060;13.786;2023-04-15T13:00:52;6.13;;;1.70;;
74328;SDS011;62745;51.060;13.786;2023-04-15T13:03:18;3.20;;;1.23;;
74328;SDS011;62745;51.060;13.786;2023-04-15T13:05:43;3.37;;;1.57;;
74328;SDS011;62745;51.060;13.786;2023-04-15T13:08:08;3.13;;;1.30;;
74328;SDS011;62745;51.060;13.786;2023-04-15T13:10:34;2.83;;;1.30;;
74328;SDS011;62745;51.060;13.786;2023-04-15T13:13:03;4.50;;;1.58;;
74328;SDS011;62745;51.060;13.786;2023-04-15T13:15:28;3.40;;;1.60;;
74328;SDS011;62745;51.060;13.786;2023-04-15T13:17:54;3.77;;;1.67;;
74328;SDS011;62745;51.060;13.786;2023-04-15T13:20:19;3.22;;;1.42;;
74328;SDS011;62745;51.060;13.786;2023-04-15T13:22:44;4.03;;;1.73;;
74328;SDS011;62745;51.060;13.786;2023-04-15T13:25:10;2.88;;;1.35;;
74328;SDS011;62745;51.060;13.786;2023-04-15T13:27:35;3.08;;;1.27;;
74328;SDS011;62745;51.060;13.786;2023-04-15T13:30:00;3.07;;;1.50;;
74328;SDS011;62745;51.060;13.786;2023-04-15T13:32:26;3.40;;;1.80;;
74328;SDS011;62745;51.060;13.786;2023-04-15T13:34:51;2.87;;;1.50;;
74328;SDS011;62745;51.060;13.786;2023-04-15T13:37:16;3.30;;;1.55;;
74328;SDS011;62745;51.060;13.786;2023-04-15T13:39:42;4.15;;;1.88;;
74328;SDS011;62745;51.060;13.786;2023-04-15T13:42:07;3.17;;;1.50;;
74328;SDS011;62745;51.060;13.786;2023-04-15T13:44:33;3.33;;;1.63;;
74328;SDS011;62745;51.060;13.786;2023-04-15T13:46:59;3.30;;;1.50;;
74328;SDS011;62745;51.060;13.786;2023-04-15T13:49:24;3.03;;;1.65;;
74328;SDS011;62745;51.060;13.786;2023-04-15T13:51:50;3.00;;;1.30;;
74328;SDS011;62745;51.060;13.786;2023-04-15T13:54:15;2.97;;;1.48;;
74328;SDS011;62745;51.060;13.786;2023-04-15T13:56:40;3.03;;;1.20;;
74328;SDS011;62745;51.060;13.786;2023-04-15T13:59:05;2.93;;;1.40;;
74328;SDS011;62745;51.060;13.786;2023-04-15T14:01:33;3.38;;;1.40;;
74328;SDS011;62745;51.060;13.786;2023-04-15T14:03:58;3.55;;;1.40;;
74328;SDS011;62745;51.060;13.786;2023-04-15T14:06:24;2.40;;;1.10;;
74328;SDS011;62745;51.060;13.786;2023-04-15T14:08:50;2.90;;;1.63;;
74328;SDS011;62745;51.060;13.786;2023-04-15T14:11:15;4.47;;;1.50;;
74328;SDS011;62745;51.060;13.786;2023-04-15T14:13:40;3.13;;;1.30;;
74328;SDS011;62745;51.060;13.786;2023-04-15T14:16:05;3.37;;;1.60;;
74328;SDS011;62745;51.060;13.786;2023-04-15T14:18:31;3.38;;;1.70;;
74328;SDS011;62745;51.060;13.786;2023-04-15T14:20:57;3.72;;;1.52;;
74328;SDS011;62745;51.060;13.786;2023-04-15T14:23:22;4.10;;;1.48;;
74328;SDS011;62745;51.060;13.786;2023-04-15T14:25:49;3.10;;;1.47;;
74328;SDS011;62745;51.060;13.786;2023-04-15T14:28:15;3.47;;;1.63;;
74328;SDS011;62745;51.060;13.786;2023-04-15T14:30:43;3.03;;;1.30;;
74328;SDS011;62745;51.060;13.786;2023-04-15T14:33:08;4.17;;;1.37;;
74328;SDS011;62745;51.060;13.786;2023-04-15T14:35:33;3.53;;;1.30;;
74328;SDS011;62745;51.060;13.786;2023-04-15T14:37:59;3.03;;;1.20;;
74328;SDS011;62745;51.060;13.786;2023-04-15T14:40:24;2.80;;;1.30;;
74328;SDS011;62745;51.060;13.786;2023-04-15T14:42:50;2.90;;;1.50;;
74328;SDS011;62745;51.060;13.786;2023-04-15T14:45:15;2.70;;;1.23;;